Time;durP1;ratioP1;P1;durP2;ratioP2;P2;SDS_P1;SDS_P2;PMS_P1;PMS_P2;Temp;Humidity;BMP_temperature;BMP_pressure;BME280_temperature;BME280_humidity;BME280_pressure;Samples;Min_cycle;Max_cycle;Signal;HPM_P1;HPM_P2
2022/06/19 00:01:00;;;;;;;3.90;3.60;;;;;;;15.21;90.20;99625.84;5023572;28;20041;-82
2022/06/19 00:03:39;;;;;;;5.13;3.77;;;;;;;15.20;89.63;99625.03;5009442;28;20034;-82
2022/06/19 00:06:05;;;;;;;5.63;3.80;;;;;;;15.27;89.42;99627.25;5000631;28;20281;-82
2022/06/19 00:08:31;;;;;;;4.53;4.05;;;;;;;15.34;89.12;99628.34;5013501;28;20103;-82
2022/06/19 00:10:58;;;;;;;5.90;4.55;;;;;;;15.32;89.33;99621.53;5027002;28;20441;-82
2022/06/19 00:13:23;;;;;;;6.50;4.68;;;;;;;15.27;89.26;99624.50;5023941;28;20084;-83
2022/06/19 00:15:49;;;;;;;5.13;3.80;;;;;;;15.21;89.34;99617.56;5027534;28;20038;-82
2022/06/19 00:18:15;;;;;;;4.32;3.92;;;;;;;15.25;89.24;99613.78;5025819;28;20128;-82
2022/06/19 00:20:41;;;;;;;3.63;2.88;;;;;;;15.27;89.31;99608.75;5018721;28;20496;-82
2022/06/19 00:23:07;;;;;;;4.13;3.72;;;;;;;15.25;88.82;99616.53;5029648;28;20500;-82
2022/06/19 00:25:34;;;;;;;5.07;3.92;;;;;;;15.20;88.96;99611.22;5020455;28;20500;-82
2022/06/19 00:28:00;;;;;;;5.78;3.85;;;;;;;15.18;89.01;99602.47;5026867;28;20042;-82
2022/06/19 00:30:26;;;;;;;6.07;3.70;;;;;;;15.23;88.91;99604.22;5029571;28;20095;-82
2022/06/19 00:32:52;;;;;;;4.72;3.10;;;;;;;15.19;89.20;99597.75;4995518;28;20046;-82
2022/06/19 00:35:18;;;;;;;6.60;4.00;;;;;;;15.15;88.92;99597.63;5019946;28;20508;-82
2022/06/19 00:37:43;;;;;;;5.15;4.00;;;;;;;15.14;88.88;99593.22;5022930;28;20037;-82
2022/06/19 00:40:11;;;;;;;4.90;4.25;;;;;;;15.19;88.76;99595.78;5028307;28;20084;-81
2022/06/19 00:42:36;;;;;;;5.63;3.90;;;;;;;15.18;88.95;99591.41;5030341;28;20086;-82
2022/06/19 00:45:03;;;;;;;4.65;4.15;;;;;;;15.16;88.92;99593.69;5027347;28;20742;-82
2022/06/19 00:47:34;;;;;;;4.50;3.65;;;;;;;15.26;88.90;99593.28;5019392;28;20089;-81
2022/06/19 00:50:21;;;;;;;8.60;4.53;;;;;;;15.29;88.74;99581.56;5001754;28;20053;-82
2022/06/19 00:52:47;;;;;;;6.30;4.03;;;;;;;15.36;88.53;99584.59;5028954;28;20045;-82
2022/06/19 00:55:21;;;;;;;7.57;4.57;;;;;;;15.43;88.44;99577.69;5009479;28;20091;-82
2022/06/19 00:57:51;;;;;;;4.60;3.97;;;;;;;15.47;88.50;99573.94;5026623;28;20052;-81
2022/06/19 01:00:29;;;;;;;5.65;4.50;;;;;;;15.49;88.15;99581.88;5028053;28;20046;-81
2022/06/19 01:03:19;;;;;;;6.13;4.50;;;;;;;15.53;87.73;99571.75;5044942;28;20041;-82
2022/06/19 01:05:46;;;;;;;4.63;3.72;;;;;;;15.47;88.42;99573.94;5021377;28;20049;-82
2022/06/19 01:08:12;;;;;;;5.43;4.53;;;;;;;15.42;88.39;99567.78;5044149;28;20033;-82
2022/06/19 01:10:41;;;;;;;6.30;4.05;;;;;;;15.37;87.99;99566.84;5018130;28;20037;-82
2022/06/19 01:13:07;;;;;;;;;;;;;;;15.40;88.32;99565.34;5040890;28;20037;-81
2022/06/19 01:15:33;;;;;;;4.88;3.83;;;;;;;15.39;88.12;99561.78;5024107;28;19921;-82
2022/06/19 01:18:03;;;;;;;4.63;3.88;;;;;;;15.48;88.43;99563.69;5041946;28;20062;-82
2022/06/19 01:20:31;;;;;;;5.90;4.32;;;;;;;15.49;88.02;99557.81;5040700;28;20052;-82
2022/06/19 01:23:01;;;;;;;5.00;3.88;;;;;;;15.53;88.19;99564.25;5041993;28;20051;-83
2022/06/19 01:25:35;;;;;;;4.35;3.88;;;;;;;15.55;88.09;99559.19;5044323;28;20486;-82
2022/06/19 01:30:50;;;;;;;5.00;3.90;;;;;;;15.43;88.29;99552.81;5037625;28;20041;-82
2022/06/19 01:33:19;;;;;;;6.80;4.43;;;;;;;15.42;88.05;99551.19;5021664;28;20053;-82
2022/06/19 01:35:47;;;;;;;4.15;3.75;;;;;;;15.44;88.39;99543.38;5021017;28;20043;-82
2022/06/19 01:38:14;;;;;;;4.85;4.35;;;;;;;15.39;88.31;99536.91;5016491;28;20083;-82
2022/06/19 01:40:42;;;;;;;4.63;4.05;;;;;;;15.42;88.45;99531.84;5044977;28;20129;-83
2022/06/19 01:43:09;;;;;;;4.63;4.18;;;;;;;15.39;88.32;99522.28;5009305;28;20059;-82
2022/06/19 01:45:41;;;;;;;4.47;4.00;;;;;;;15.36;88.45;99522.97;5041228;28;20078;-82
2022/06/19 01:48:12;;;;;;;5.97;3.67;;;;;;;15.33;88.64;99518.94;4998279;28;20045;-81
2022/06/19 01:50:37;;;;;;;4.65;3.92;;;;;;;15.31;88.68;99523.19;5017967;28;20075;-82
2022/06/19 01:53:07;;;;;;;5.43;3.85;;;;;;;15.28;88.63;99523.88;5014174;28;20666;-82
2022/06/19 01:55:34;;;;;;;4.40;3.63;;;;;;;15.22;88.85;99514.97;5020676;28;20493;-82
2022/06/19 01:58:00;;;;;;;5.32;3.60;;;;;;;15.22;89.05;99506.66;5025036;28;20059;-82
2022/06/19 02:00:34;;;;;;;4.07;3.67;;;;;;;15.24;89.10;99498.84;5021008;28;20095;-82
2022/06/19 02:03:11;;;;;;;4.93;4.03;;;;;;;15.26;88.63;99499.31;5032295;28;20076;-82
2022/06/19 02:05:38;;;;;;;5.35;3.78;;;;;;;15.27;89.22;99495.44;4991742;28;20503;-82
2022/06/19 02:08:04;;;;;;;3.80;3.45;;;;;;;15.29;89.09;99511.66;5015740;28;20131;-83
2022/06/19 02:10:31;;;;;;;4.80;4.18;;;;;;;15.30;88.69;99496.69;5014970;28;20087;-83
2022/06/19 02:12:57;;;;;;;6.05;3.92;;;;;;;15.28;88.74;99502.56;5029376;28;20053;-82
2022/06/19 02:15:23;;;;;;;5.20;3.88;;;;;;;15.31;88.69;99501.88;5020861;28;20507;-83
2022/06/19 02:17:52;;;;;;;5.38;4.07;;;;;;;15.34;88.77;99495.66;5038249;28;20040;-82
2022/06/19 02:20:19;;;;;;;5.50;3.83;;;;;;;15.39;88.54;99495.44;5020636;28;20044;-83
2022/06/19 02:22:44;;;;;;;5.60;3.58;;;;;;;15.42;88.50;99495.91;5018825;28;20103;-83
2022/06/19 02:25:10;;;;;;;4.78;4.10;;;;;;;15.44;88.44;99493.59;5038134;28;20037;-82
2022/06/19 02:27:37;;;;;;;4.93;3.63;;;;;;;15.52;88.17;99498.25;5041362;28;20037;-82
2022/06/19 02:30:05;;;;;;;4.30;3.85;;;;;;;15.56;88.19;99491.69;5005266;28;20044;-82
2022/06/19 02:32:45;;;;;;;5.20;4.18;;;;;;;15.53;87.86;99486.03;5037816;28;20037;-82
2022/06/19 02:35:19;;;;;;;4.63;3.80;;;;;;;15.51;88.26;99491.91;5038393;28;20115;-82
2022/06/19 02:37:50;;;;;;;5.95;4.28;;;;;;;15.49;87.93;99480.38;5006602;28;20037;-82
2022/06/19 02:40:54;;;;;;;5.13;3.80;;;;;;;15.50;87.72;99481.19;5038095;28;20038;-82
2022/06/19 02:43:24;;;;;;;4.18;3.78;;;;;;;15.54;87.63;99482.13;5040560;28;20048;-82
2022/06/19 02:45:50;;;;;;;6.35;4.22;;;;;;;15.49;87.52;99466.56;5028211;28;20625;-81
2022/06/19 02:48:22;;;;;;;4.40;3.67;;;;;;;15.53;87.49;99477.75;5041372;28;20068;-81
2022/06/19 02:50:48;;;;;;;5.38;4.50;;;;;;;15.54;87.50;99465.53;5039440;28;20033;-81
2022/06/19 02:53:15;;;;;;;5.70;4.65;;;;;;;15.61;87.28;99465.78;5041898;28;20044;-81
2022/06/19 02:55:41;;;;;;;4.50;4.03;;;;;;;15.67;87.00;99464.44;4970142;28;20397;-81
2022/06/19 02:58:07;;;;;;;6.05;4.90;;;;;;;15.66;86.97;99468.34;5042440;28;20677;-82
2022/06/19 03:00:33;;;;;;;5.03;4.45;;;;;;;15.65;86.89;99452.91;5021323;28;20123;-82
2022/06/19 03:03:22;;;;;;;5.35;3.78;;;;;;;15.63;86.82;99458.00;5019780;28;20504;-81
2022/06/19 03:05:48;;;;;;;4.22;3.45;;;;;;;15.60;86.90;99451.16;5028292;28;20076;-82
2022/06/19 03:08:14;;;;;;;5.10;3.88;;;;;;;15.57;86.68;99446.28;5042926;28;20040;-82
2022/06/19 03:10:40;;;;;;;5.35;4.30;;;;;;;15.60;86.86;99442.06;5028259;28;20037;-81
2022/06/19 03:13:05;;;;;;;4.85;3.83;;;;;;;15.61;86.76;99440.91;5005002;28;20488;-82
2022/06/19 03:15:31;;;;;;;4.82;4.18;;;;;;;15.60;86.59;99445.63;5041985;28;20038;-82
2022/06/19 03:17:57;;;;;;;5.13;3.42;;;;;;;15.63;86.70;99447.72;5045914;28;20136;-82
2022/06/19 03:20:24;;;;;;;4.78;3.40;;;;;;;15.55;86.86;99436.72;5019496;28;20041;-82
2022/06/19 03:22:50;;;;;;;6.80;3.70;;;;;;;15.53;86.94;99437.06;5037838;28;20140;-83
2022/06/19 03:25:17;;;;;;;3.63;3.30;;;;;;;15.49;87.03;99433.38;5042288;28;20489;-83
2022/06/19 03:27:43;;;;;;;5.63;4.07;;;;;;;15.50;86.89;99434.19;5038316;28;20037;-82
2022/06/19 03:30:09;;;;;;;6.63;4.38;;;;;;;15.52;87.18;99445.72;5037214;28;20049;-83
2022/06/19 03:32:35;;;;;;;8.40;3.50;;;;;;;15.49;87.04;99430.63;5032135;28;20045;-82
2022/06/19 03:35:00;;;;;;;5.18;3.72;;;;;;;15.45;87.17;99434.44;5051052;28;20128;-82
2022/06/19 03:37:26;;;;;;;6.75;3.65;;;;;;;15.53;87.01;99427.97;5046930;28;20534;-83
2022/06/19 03:39:52;;;;;;;3.95;3.08;;;;;;;15.62;86.94;99423.19;5073639;28;20043;-82
2022/06/19 03:42:18;;;;;;;5.65;3.78;;;;;;;15.68;86.46;99427.34;5039058;28;20048;-83
2022/06/19 03:44:43;;;;;;;4.97;3.85;;;;;;;15.72;86.56;99430.22;5013026;28;20554;-83
2022/06/19 03:47:11;;;;;;;4.75;3.88;;;;;;;15.74;86.68;99425.94;5035565;28;20076;-82
2022/06/19 03:49:36;;;;;;;4.90;3.70;;;;;;;15.68;86.66;99417.06;5043230;28;20041;-83
2022/06/19 03:52:02;;;;;;;4.22;3.60;;;;;;;15.66;86.77;99418.56;5035599;28;20526;-82
2022/06/19 03:54:28;;;;;;;7.55;4.05;;;;;;;15.62;86.56;99409.38;5048249;28;20126;-83
2022/06/19 03:56:54;;;;;;;3.90;3.33;;;;;;;15.60;86.55;99409.69;5035734;28;20087;-83
2022/06/19 03:59:19;;;;;;;3.80;3.13;;;;;;;15.60;86.39;99403.34;5034223;28;20064;-82
2022/06/19 04:01:45;;;;;;;4.07;3.35;;;;;;;15.57;86.60;99407.59;5049724;28;20076;-83
2022/06/19 04:04:11;;;;;;;4.90;3.50;;;;;;;15.61;86.64;99404.97;5033366;28;20037;-82
2022/06/19 04:06:39;;;;;;;3.25;2.95;;;;;;;15.57;86.60;99404.81;5034355;28;20037;-82
2022/06/19 04:09:07;;;;;;;3.75;3.40;;;;;;;15.61;86.67;99388.38;5051412;28;20041;-83
2022/06/19 04:11:34;;;;;;;5.27;3.27;;;;;;;15.61;87.17;99399.44;5052896;28;20063;-82
2022/06/19 04:14:00;;;;;;;4.95;3.13;;;;;;;15.67;86.39;99392.53;5018225;28;20299;-82
2022/06/19 04:16:27;;;;;;;5.68;2.92;;;;;;;15.63;86.53;99391.63;5034651;28;20063;-82
2022/06/19 04:18:54;;;;;;;3.42;3.13;;;;;;;15.61;86.14;99394.69;5031780;28;20083;-83
2022/06/19 04:21:22;;;;;;;4.07;3.15;;;;;;;15.56;86.46;99386.63;5032607;28;20037;-83
2022/06/19 04:23:50;;;;;;;5.72;3.25;;;;;;;15.56;86.56;99389.38;5032961;28;20530;-82
2022/06/19 04:26:17;;;;;;;5.45;3.85;;;;;;;15.57;86.29;99392.94;5035098;28;20037;-82
2022/06/19 04:28:43;;;;;;;4.85;3.22;;;;;;;15.58;86.67;99383.50;5051509;28;20067;-82
2022/06/19 04:31:08;;;;;;;4.22;3.78;;;;;;;15.56;86.44;99391.34;5044303;28;20041;-82
2022/06/19 04:33:38;;;;;;;3.58;3.28;;;;;;;15.57;86.58;99379.13;5050505;28;20106;-83
2022/06/19 04:36:06;;;;;;;5.40;3.13;;;;;;;15.61;86.30;99389.16;5035595;28;20606;-83
2022/06/19 04:38:33;;;;;;;6.20;3.38;;;;;;;15.66;86.30;99377.91;5046242;28;20677;-82
2022/06/19 04:40:58;;;;;;;3.53;3.22;;;;;;;15.74;86.42;99387.22;5034875;28;20073;-82
2022/06/19 04:43:24;;;;;;;3.88;3.00;;;;;;;15.79;86.50;99384.22;5051184;28;20088;-82
2022/06/19 04:45:50;;;;;;;6.93;3.35;;;;;;;15.84;85.98;99370.19;5019893;28;20033;-82
2022/06/19 04:48:15;;;;;;;4.25;3.30;;;;;;;15.86;86.11;99367.88;5026097;28;20041;-82
2022/06/19 04:50:41;;;;;;;6.65;3.38;;;;;;;15.94;85.59;99366.13;5039984;28;20044;-82
2022/06/19 04:53:07;;;;;;;4.32;3.28;;;;;;;16.00;85.51;99363.94;5032960;28;20111;-82
2022/06/19 04:55:33;;;;;;;3.30;2.90;;;;;;;16.02;85.35;99364.38;5048313;28;20171;-82
2022/06/19 04:58:02;;;;;;;4.15;3.30;;;;;;;16.03;85.21;99368.78;5043414;28;20195;-82
2022/06/19 05:00:28;;;;;;;5.25;3.28;;;;;;;16.17;85.17;99369.22;5020965;28;20479;-82
2022/06/19 05:02:54;;;;;;;3.35;2.97;;;;;;;16.31;84.80;99361.31;5014673;28;20037;-82
2022/06/19 05:05:21;;;;;;;6.25;3.05;;;;;;;16.32;84.27;99351.88;5050281;28;20080;-82
2022/06/19 05:07:47;;;;;;;3.97;3.15;;;;;;;16.45;84.13;99367.25;5001798;28;20045;-81
2022/06/19 05:10:13;;;;;;;3.40;3.10;;;;;;;16.54;84.34;99365.16;5034905;28;20038;-81
2022/06/19 05:12:39;;;;;;;4.78;3.67;;;;;;;16.73;83.80;99352.66;5044424;28;20045;-81
2022/06/19 05:15:05;;;;;;;4.38;3.35;;;;;;;16.93;83.64;99354.41;5045739;28;20033;-81
2022/06/19 05:17:32;;;;;;;4.78;2.85;;;;;;;17.01;82.79;99347.06;5033983;28;20042;-81
2022/06/19 05:19:58;;;;;;;3.50;2.97;;;;;;;17.02;82.08;99346.75;5033789;28;20460;-81
2022/06/19 05:22:23;;;;;;;3.10;2.83;;;;;;;16.99;81.70;99344.66;5030928;28;20136;-83
2022/06/19 05:24:49;;;;;;;4.57;3.25;;;;;;;16.94;81.58;99356.00;5033568;28;20045;-82
2022/06/19 05:27:16;;;;;;;5.40;3.13;;;;;;;16.88;81.67;99361.00;5033329;28;20419;-81
2022/06/19 05:29:41;;;;;;;5.63;3.45;;;;;;;16.84;81.39;99357.34;5045894;28;20037;-82
2022/06/19 05:32:07;;;;;;;6.47;3.45;;;;;;;16.77;81.35;99346.03;5025764;28;20091;-82
2022/06/19 05:34:34;;;;;;;4.40;3.45;;;;;;;16.76;81.30;99349.97;5051684;28;20060;-83
2022/06/19 05:37:01;;;;;;;3.78;3.35;;;;;;;16.86;80.94;99341.16;5051607;28;20041;-83
2022/06/19 05:39:26;;;;;;;5.13;2.95;;;;;;;16.95;81.15;99352.06;5032739;28;20037;-83
2022/06/19 05:41:52;;;;;;;5.15;3.40;;;;;;;16.97;80.58;99355.28;5030345;28;20044;-84
2022/06/19 05:44:18;;;;;;;4.55;3.30;;;;;;;16.95;80.46;99341.00;5049757;28;20033;-84
2022/06/19 05:46:47;;;;;;;3.55;3.20;;;;;;;16.87;80.46;99341.97;5051346;28;20048;-84
2022/06/19 05:49:13;;;;;;;4.60;3.42;;;;;;;16.71;80.36;99343.91;5032339;28;20037;-83
2022/06/19 05:51:39;;;;;;;4.38;3.72;;;;;;;16.58;80.49;99343.91;5048725;28;20443;-84
2022/06/19 05:54:04;;;;;;;4.15;3.63;;;;;;;16.49;80.59;99340.50;5051505;28;20135;-84
2022/06/19 05:56:30;;;;;;;4.45;3.20;;;;;;;16.40;81.22;99337.06;5031922;28;20037;-83
2022/06/19 05:58:56;;;;;;;5.68;3.85;;;;;;;16.43;81.35;99330.81;5050233;28;20056;-83
2022/06/19 06:01:22;;;;;;;5.63;4.13;;;;;;;16.75;81.57;99330.94;5046609;28;20041;-82
2022/06/19 06:03:48;;;;;;;3.90;3.50;;;;;;;17.01;81.43;99322.94;5050529;28;20049;-82
2022/06/19 06:06:21;;;;;;;6.93;3.97;;;;;;;17.16;81.26;99324.91;5050432;28;20037;-82
2022/06/19 06:08:48;;;;;;;4.75;3.58;;;;;;;17.17;80.88;99320.97;5002604;28;20048;-82
2022/06/19 06:11:15;;;;;;;4.35;3.83;;;;;;;17.16;80.13;99324.91;5043150;28;20037;-82
2022/06/19 06:13:41;;;;;;;5.35;3.53;;;;;;;17.06;79.82;99319.91;5033548;28;20041;-82
2022/06/19 06:16:07;;;;;;;4.55;3.80;;;;;;;17.12;79.06;99326.78;5046911;28;20480;-82
2022/06/19 06:18:32;;;;;;;4.47;3.72;;;;;;;17.20;79.36;99329.75;5022359;28;20043;-82
2022/06/19 06:21:01;;;;;;;3.45;3.13;;;;;;;17.20;79.50;99327.00;5041024;28;20575;-82
2022/06/19 06:23:28;;;;;;;4.85;3.63;;;;;;;17.13;79.35;99333.13;5032702;28;20075;-83
2022/06/19 06:26:01;;;;;;;4.50;3.90;;;;;;;17.09;79.55;99333.06;5050724;28;20124;-82
2022/06/19 06:28:28;;;;;;;4.95;4.03;;;;;;;17.13;79.60;99333.13;5030312;28;20128;-83
2022/06/19 06:30:53;;;;;;;6.03;3.95;;;;;;;17.06;79.47;99324.66;5011131;28;20064;-83
2022/06/19 06:33:19;;;;;;;6.32;3.88;;;;;;;16.97;79.90;99333.13;5032796;28;20076;-83
2022/06/19 06:35:45;;;;;;;5.38;3.85;;;;;;;16.96;79.73;99345.38;5048382;28;20059;-83
2022/06/19 06:38:10;;;;;;;4.30;2.95;;;;;;;17.09;79.28;99335.81;5048505;28;20040;-82
2022/06/19 06:40:36;;;;;;;4.18;3.80;;;;;;;17.14;79.61;99326.44;5044542;28;20131;-82
2022/06/19 06:43:02;;;;;;;5.10;3.78;;;;;;;17.27;79.36;99327.16;5022652;28;20503;-82
2022/06/19 06:45:28;;;;;;;3.20;2.90;;;;;;;17.34;79.06;99319.81;5046602;28;20041;-83
2022/06/19 06:47:53;;;;;;;4.28;3.38;;;;;;;17.56;78.67;99310.06;5021071;28;20044;-82
2022/06/19 06:50:19;;;;;;;4.25;2.92;;;;;;;17.96;77.38;99318.13;5031957;28;20051;-82
2022/06/19 06:52:46;;;;;;;3.85;3.10;;;;;;;18.13;75.92;99316.13;5021840;28;20076;-82
2022/06/19 06:55:12;;;;;;;3.92;3.38;;;;;;;18.33;75.42;99315.75;5017273;28;20566;-82
2022/06/19 06:57:38;;;;;;;5.10;3.10;;;;;;;18.59;74.60;99311.53;5047120;28;20052;-82
2022/06/19 07:00:06;;;;;;;3.55;3.17;;;;;;;18.68;73.81;99306.56;5031964;28;20045;-82
2022/06/19 07:02:32;;;;;;;5.22;3.78;;;;;;;18.64;73.82;99302.91;5016066;28;20120;-82
2022/06/19 07:04:57;;;;;;;5.65;3.80;;;;;;;18.56;73.10;99315.00;5037739;28;20395;-83
2022/06/19 07:07:23;;;;;;;4.68;4.15;;;;;;;18.46;72.87;99313.66;5032059;28;20090;-83
2022/06/19 07:09:49;;;;;;;5.13;3.70;;;;;;;18.28;73.21;99307.72;5020166;28;20041;-83
2022/06/19 07:12:14;;;;;;;3.88;3.40;;;;;;;18.13;74.41;99318.91;5037642;28;20061;-84
2022/06/19 07:14:40;;;;;;;5.93;3.75;;;;;;;18.01;74.78;99326.16;5029328;28;20428;-84
2022/06/19 07:17:07;;;;;;;5.13;4.03;;;;;;;17.87;75.51;99319.50;5026014;28;20128;-83
2022/06/19 07:19:32;;;;;;;4.43;3.50;;;;;;;17.65;76.73;99323.72;5035671;28;20047;-83
2022/06/19 07:21:58;;;;;;;3.72;3.25;;;;;;;17.50;77.60;99322.56;5028058;28;20064;-83
2022/06/19 07:24:25;;;;;;;4.47;4.07;;;;;;;17.31;77.94;99330.81;5050152;28;20037;-83
2022/06/19 07:26:51;;;;;;;6.32;4.60;;;;;;;17.13;78.40;99331.16;5020965;28;20041;-83
2022/06/19 07:29:18;;;;;;;5.30;4.65;;;;;;;16.95;79.41;99349.31;5022259;28;20047;-84
2022/06/19 07:31:43;;;;;;;7.32;4.82;;;;;;;16.77;80.09;99329.44;5063821;28;20106;-84
2022/06/19 07:34:09;;;;;;;5.90;4.70;;;;;;;16.55;80.35;99324.44;5054454;28;20517;-84
2022/06/19 07:36:35;;;;;;;5.63;4.72;;;;;;;16.32;80.94;99332.50;5074143;28;20044;-83
2022/06/19 07:39:01;;;;;;;4.10;3.38;;;;;;;16.09;81.30;99339.69;5051343;28;20033;-84
2022/06/19 07:41:26;;;;;;;5.03;3.50;;;;;;;15.89;81.86;99342.25;5024186;28;20043;-84
2022/06/19 07:43:52;;;;;;;7.63;4.60;;;;;;;15.65;82.58;99348.63;5044034;28;20412;-84
2022/06/19 07:46:19;;;;;;;6.55;4.53;;;;;;;15.46;83.26;99347.56;5053377;28;20041;-84
2022/06/19 07:51:30;;;;;;;6.53;4.90;;;;;;;15.31;84.56;99349.88;5026239;28;20041;-84
2022/06/19 07:53:56;;;;;;;9.48;3.92;;;;;;;15.49;85.07;99333.06;5059098;28;20412;-83
2022/06/19 07:56:21;;;;;;;5.90;4.00;;;;;;;15.81;85.48;99339.63;5015194;28;20033;-82
2022/06/19 07:58:47;;;;;;;7.05;3.85;;;;;;;16.23;85.77;99338.16;5049408;28;20044;-82
2022/06/19 08:01:13;;;;;;;5.28;4.00;;;;;;;16.48;85.51;99344.41;5033642;28;20036;-83
2022/06/19 08:03:38;;;;;;;6.55;4.00;;;;;;;16.57;85.31;99342.31;5052704;28;20040;-82
2022/06/19 08:06:04;;;;;;;6.93;4.25;;;;;;;16.44;83.93;99340.72;5048437;28;20128;-83
2022/06/19 08:08:32;;;;;;;4.95;3.85;;;;;;;16.30;82.79;99337.56;5017056;28;20083;-82
2022/06/19 08:10:59;;;;;;;8.05;3.65;;;;;;;16.18;82.30;99345.91;5047715;28;20507;-83
2022/06/19 08:13:27;;;;;;;4.68;3.92;;;;;;;16.12;81.76;99350.06;5044247;28;20055;-83
2022/06/19 08:15:56;;;;;;;5.07;3.70;;;;;;;16.14;82.14;99336.66;5016100;28;20033;-84
2022/06/19 08:18:23;;;;;;;4.18;3.28;;;;;;;16.25;81.75;99335.03;4999518;28;20037;-84
2022/06/19 08:20:49;;;;;;;6.00;4.05;;;;;;;16.17;80.97;99327.69;5029860;28;20037;-83
2022/06/19 08:23:14;;;;;;;4.80;3.65;;;;;;;16.06;79.97;99348.69;5052242;28;20040;-84
2022/06/19 08:25:41;;;;;;;5.07;3.25;;;;;;;16.02;79.36;99347.78;5020013;28;20120;-84
2022/06/19 08:28:07;;;;;;;7.32;3.67;;;;;;;16.02;79.42;99333.94;5051961;28;20095;-84
2022/06/19 08:30:43;;;;;;;4.95;3.72;;;;;;;16.06;79.35;99354.22;5034650;28;20037;-84
2022/06/19 08:33:09;;;;;;;4.50;3.47;;;;;;;16.17;79.23;99338.75;5038342;28;20055;-83
2022/06/19 08:35:48;;;;;;;3.85;2.92;;;;;;;16.20;78.94;99352.69;5013710;28;20075;-85
2022/06/19 08:38:17;;;;;;;5.88;4.03;;;;;;;16.16;79.11;99362.06;5015929;28;20045;-85
2022/06/19 08:40:45;;;;;;;4.90;3.33;;;;;;;16.07;79.30;99353.06;5033385;28;20037;-86
2022/06/19 08:43:39;;;;;;;6.57;4.07;;;;;;;15.95;79.27;99357.47;5034728;28;20052;-84
2022/06/19 08:46:20;;;;;;;7.45;4.97;;;;;;;15.85;79.59;99352.41;5049887;28;20061;-85
2022/06/19 08:48:57;;;;;;;4.95;3.63;;;;;;;15.79;79.78;99356.56;5034688;28;20496;-85
2022/06/19 08:51:32;;;;;;;5.97;4.07;;;;;;;15.78;79.87;99365.22;5032789;28;20045;-84
2022/06/19 08:54:16;;;;;;;6.57;4.13;;;;;;;15.86;80.26;99362.34;4999959;28;20787;-84
2022/06/19 08:56:49;;;;;;;5.72;4.07;;;;;;;15.93;80.49;99357.00;5025888;28;20132;-84
2022/06/19 08:59:36;;;;;;;5.43;4.05;;;;;;;15.98;80.35;99367.06;5009784;28;20124;-84
2022/06/19 09:02:31;;;;;;;5.15;4.32;;;;;;;16.12;80.11;99369.44;5043943;28;20037;-82
2022/06/19 09:05:38;;;;;;;4.60;3.60;;;;;;;16.40;79.78;99377.78;5020871;28;20036;-81
2022/06/19 09:08:29;;;;;;;6.07;4.28;;;;;;;16.55;79.19;99382.59;5047604;28;20072;-82
2022/06/19 09:11:15;;;;;;;5.18;4.13;;;;;;;16.58;78.64;99391.00;5048641;28;20040;-82
2022/06/19 09:14:03;;;;;;;6.75;4.40;;;;;;;16.73;77.65;99385.91;5014689;28;20110;-82
2022/06/19 09:16:38;;;;;;;5.32;4.15;;;;;;;16.93;77.34;99404.28;5034182;28;20037;-82
2022/06/19 09:19:10;;;;;;;6.82;3.90;;;;;;;17.00;76.67;99403.66;5021206;28;20574;-82
2022/06/19 09:21:54;;;;;;;4.63;3.65;;;;;;;17.07;76.18;99415.75;5035848;28;20045;-83
2022/06/19 09:24:38;;;;;;;6.10;4.45;;;;;;;17.14;75.18;99415.94;5057047;28;20121;-82
2022/06/19 09:27:05;;;;;;;5.63;3.50;;;;;;;17.23;74.73;99412.22;5036457;28;20032;-83
2022/06/19 09:29:32;;;;;;;5.38;3.50;;;;;;;17.21;74.97;99414.53;5045321;28;20102;-80
2022/06/19 09:32:15;;;;;;;6.32;4.15;;;;;;;17.12;74.42;99442.41;5034065;28;20565;-82
2022/06/19 09:34:56;;;;;;;4.18;3.20;;;;;;;17.03;74.75;99436.22;5024131;28;20478;-81
2022/06/19 09:37:24;;;;;;;5.03;3.65;;;;;;;17.01;74.64;99439.34;5033036;28;20600;-79
2022/06/19 09:40:03;;;;;;;5.72;3.78;;;;;;;16.97;74.60;99452.28;5050894;28;20111;-80
2022/06/19 09:42:46;;;;;;;4.10;3.63;;;;;;;16.97;74.64;99449.50;5014915;28;20634;-79
2022/06/19 09:45:29;;;;;;;3.60;3.13;;;;;;;16.90;74.67;99445.75;5002831;28;20555;-81
2022/06/19 09:48:41;;;;;;;6.25;4.13;;;;;;;16.79;74.42;99449.00;5048517;28;20033;-80
2022/06/19 09:51:31;;;;;;;5.05;3.70;;;;;;;16.68;74.57;99455.41;5041570;28;20052;-81
2022/06/19 09:54:02;;;;;;;7.28;3.70;;;;;;;16.61;74.63;99458.72;5028197;28;20420;-82
2022/06/19 09:56:52;;;;;;;4.68;3.13;;;;;;;16.71;75.17;99451.94;5034405;28;20045;-83
2022/06/19 09:59:45;;;;;;;4.25;3.33;;;;;;;16.70;74.53;99461.41;5044780;28;20510;-84
2022/06/19 10:02:17;;;;;;;4.93;3.60;;;;;;;16.71;73.77;99468.56;5031927;28;20115;-82
2022/06/19 10:05:06;;;;;;;4.32;3.40;;;;;;;16.71;73.80;99476.84;5009968;28;20041;-81
2022/06/19 10:07:42;;;;;;;5.20;3.22;;;;;;;16.59;73.82;99478.47;5028899;28;20178;-81
2022/06/19 10:10:22;;;;;;;3.42;2.95;;;;;;;16.50;73.81;99463.97;5021424;28;20104;-81
2022/06/19 10:12:49;;;;;;;3.20;2.90;;;;;;;16.42;73.24;99472.38;5046782;28;20064;-80
2022/06/19 10:15:25;;;;;;;3.97;2.65;;;;;;;16.39;73.19;99468.34;5027320;28;20045;-78
2022/06/19 10:17:56;;;;;;;3.28;2.42;;;;;;;16.47;73.45;99480.44;5025632;28;20042;-80
2022/06/19 10:20:31;;;;;;;6.00;2.40;;;;;;;16.62;72.89;99479.72;5023504;28;20496;-82
2022/06/19 10:23:11;;;;;;;2.35;2.15;;;;;;;16.78;72.04;99477.06;5024243;28;20041;-82
2022/06/19 10:25:46;;;;;;;3.10;2.08;;;;;;;16.78;71.38;99488.13;5025554;28;20179;-85
2022/06/19 10:28:37;;;;;;;3.60;2.42;;;;;;;16.68;70.89;99485.88;5029472;28;20135;-93
2022/06/19 10:31:24;;;;;;;4.65;2.40;;;;;;;16.66;70.72;99490.91;5070453;28;20499;-93
2022/06/19 10:34:19;;;;;;;3.33;1.85;;;;;;;16.63;70.35;99502.69;5030970;28;20127;-94
2022/06/19 10:37:08;;;;;;;2.20;1.70;;;;;;;16.56;70.00;99500.50;5006981;28;20049;-95
2022/06/19 10:39:53;;;;;;;4.30;1.90;;;;;;;16.60;70.08;99501.44;5015281;28;20037;-91
2022/06/19 10:42:33;;;;;;;3.45;1.92;;;;;;;16.64;69.94;99498.75;5018266;28;20037;-85
2022/06/19 10:45:05;;;;;;;4.00;2.30;;;;;;;16.61;68.96;99499.47;5032301;28;20037;-86
2022/06/19 10:47:53;;;;;;;3.25;1.60;;;;;;;16.52;69.14;99500.41;5015569;28;20040;-86
2022/06/19 10:50:31;;;;;;;2.43;1.37;;;;;;;16.58;68.98;99500.97;5033002;28;20123;-82
2022/06/19 10:52:56;;;;;;;1.80;1.38;;;;;;;16.55;68.58;99510.78;5046547;28;20575;-82
2022/06/19 10:55:28;;;;;;;3.47;1.77;;;;;;;16.51;68.33;99525.69;5050454;28;20075;-82
2022/06/19 10:58:00;;;;;;;1.85;0.93;;;;;;;16.44;66.96;99514.38;5044030;28;20033;-80
2022/06/19 11:00:26;;;;;;;1.58;1.17;;;;;;;16.27;65.94;99538.38;5031289;28;20040;-81
2022/06/19 11:05:54;;;;;;;7.03;1.27;;;;;;;16.04;65.42;99541.94;5035000;28;20048;-81
2022/06/19 11:08:21;;;;;;;4.60;1.10;;;;;;;15.87;64.71;99549.28;5024466;28;20123;-78
2022/06/19 11:10:50;;;;;;;2.90;0.85;;;;;;;15.77;65.77;99555.25;5037906;28;20033;-86
2022/06/19 11:13:15;;;;;;;2.83;1.00;;;;;;;15.71;65.89;99558.59;5048009;28;20033;-83
2022/06/19 11:15:58;;;;;;;4.63;0.90;;;;;;;15.71;66.48;99551.09;5033537;28;20099;-92
2022/06/19 11:18:25;;;;;;;2.55;1.92;;;;;;;15.70;65.85;99551.44;5032989;28;20044;-84
2022/06/19 11:21:12;;;;;;;1.52;0.90;;;;;;;15.72;65.23;99561.00;5048746;28;20037;-83
2022/06/19 11:23:49;;;;;;;1.52;1.05;;;;;;;15.73;65.15;99548.00;5024946;28;20034;-85
2022/06/19 11:26:20;;;;;;;2.55;1.20;;;;;;;15.71;64.73;99564.94;5031227;28;20033;-84
2022/06/19 11:29:02;;;;;;;1.17;0.80;;;;;;;15.70;63.31;99557.78;5048840;28;20041;-84
2022/06/19 11:31:29;;;;;;;2.30;0.80;;;;;;;15.68;63.01;99560.88;5026811;28;20045;-87
2022/06/19 11:34:43;;;;;;;1.35;0.85;;;;;;;15.64;61.60;99550.84;5035322;28;20044;-82
2022/06/19 11:37:14;;;;;;;1.63;1.00;;;;;;;15.55;60.79;99561.97;5029248;28;20041;-90
2022/06/19 11:39:47;;;;;;;1.20;0.90;;;;;;;15.48;60.92;99566.44;4992574;28;20123;-94
2022/06/19 11:42:19;;;;;;;1.42;1.02;;;;;;;15.47;61.69;99549.03;5017966;28;20033;-93
2022/06/19 11:44:54;;;;;;;2.25;0.88;;;;;;;15.48;61.54;99577.50;5045178;28;20072;-95
2022/06/19 11:47:37;;;;;;;2.97;0.85;;;;;;;15.50;62.18;99564.16;5054514;28;20358;-94
2022/06/19 11:50:13;;;;;;;0.65;0.65;;;;;;;15.56;63.19;99560.81;5049187;28;20068;-95
2022/06/19 11:52:48;;;;;;;0.77;0.63;;;;;;;15.62;63.38;99553.97;5040878;28;20087;-96
2022/06/19 11:55:29;;;;;;;0.88;0.80;;;;;;;15.64;63.18;99562.72;5024870;28;20041;-94
2022/06/19 11:58:19;;;;;;;2.08;0.80;;;;;;;15.62;63.61;99567.00;5035703;28;20230;-93